Time,TemperatureF,DewpointF,PressureIn,WindDirection,WindDirectionDegrees,WindSpeedMPH,WindSpeedGustMPH,Humidity,HourlyPrecipIn,Conditions,Clouds,dailyrainin,SolarRadiationWatts/m^2,SoftwareType,DateUTC
2013-01-03 00:22:00,11.0,1.0,-100.00,SE,140,4.0,9.0,64,0.00,,,0.00,0.000000,,2013-01-03 07:22:00,
2013-01-03 01:22:00,11.0,1.0,-100.00,SE,141,4.0,6.0,62,0.00,,,0.00,0.000000,,2013-01-03 08:22:00,
2013-01-03 01:51:00,8.0,-2.0,-100.00,NE,44,2.0,6.0,64,-99.99,,,0.00,0.000000,,2013-01-03 08:51:00,
2013-01-03 02:12:00,8.0,-2.0,-100.00,NE,44,2.0,6.0,64,-99.99,,,0.00,0.000000,,2013-01-03 09:12:00,
2013-01-03 02:22:00,8.0,-2.0,-100.00,NE,44,2.0,6.0,64,-99.99,,,0.00,0.000000,,2013-01-03 09:22:00,
2013-01-03 02:33:00,8.0,-2.0,-100.00,NE,44,2.0,6.0,64,-99.99,,,0.00,0.000000,,2013-01-03 09:33:00,
2013-01-03 02:42:00,8.0,-2.0,-100.00,NE,44,2.0,6.0,64,-99.99,,,0.00,0.000000,,2013-01-03 09:42:00,
2013-01-03 03:22:00,8.0,-2.0,-100.00,East,99,3.0,8.0,63,0.00,,,0.00,0.000000,,2013-01-03 10:22:00,
2013-01-03 04:12:00,7.0,-2.0,-100.00,East,90,4.0,10.0,66,-99.99,,,0.00,0.000000,,2013-01-03 11:12:00,
2013-01-03 04:22:00,7.0,-2.0,-100.00,East,90,4.0,10.0,66,-99.99,,,0.00,0.000000,,2013-01-03 11:22:00,
2013-01-03 05:12:00,5.0,-3.0,-100.00,ENE,65,4.0,9.0,68,-99.99,,,0.00,0.000000,,2013-01-03 12:12:00,
2013-01-03 05:22:00,5.0,-3.0,-100.00,ENE,65,4.0,9.0,68,-99.99,,,0.00,0.000000,,2013-01-03 12:22:00,
2013-01-03 06:51:00,3.0,-5.0,-100.00,East,85,3.0,5.0,70,-99.99,,,-99.99,0.000000,,2013-01-03 13:51:00,
2013-01-03 07:12:00,3.0,-5.0,-100.00,East,85,3.0,5.0,70,-99.99,,,-99.99,0.000000,,2013-01-03 14:12:00,
2013-01-03 07:42:00,3.0,-5.0,-100.00,East,85,3.0,5.0,70,-99.99,,,-99.99,0.000000,,2013-01-03 14:42:00,
2013-01-03 08:12:00,2.0,-6.0,-100.00,ESE,102,2.0,6.0,69,-99.99,,,0.00,4.000000,,2013-01-03 15:12:00,
2013-01-03 09:12:00,7.0,-4.0,-100.00,ENE,66,2.0,6.0,59,-99.99,,,0.00,107.000000,,2013-01-03 16:12:00,
2013-01-03 10:12:00,12.0,-3.0,-100.00,ENE,62,6.0,13.0,50,0.00,,,0.00,337.000000,,2013-01-03 17:12:00,
2013-01-03 11:13:00,15.0,-99.9,-100.00,East,84,3.0,-999.0,-999,-99.99,,,0.00,,,2013-01-03 18:13:00,
2013-01-03 11:23:00,15.0,-99.9,-100.00,East,84,3.0,-999.0,-999,-99.99,,,0.00,,,2013-01-03 18:23:00,
2013-01-03 11:33:00,15.0,-99.9,-100.00,East,84,3.0,-999.0,-999,-99.99,,,0.00,,,2013-01-03 18:33:00,
2013-01-03 11:51:00,18.0,0.0,-100.00,NNE,20,2.0,5.0,44,-99.99,,,0.00,596.000000,,2013-01-03 18:51:00,
2013-01-03 13:22:00,23.0,2.0,-100.00,ESE,104,2.0,5.0,40,-99.99,,,0.00,628.000000,,2013-01-03 20:22:00,
2013-01-03 13:51:00,24.0,2.0,-100.00,ENE,72,2.0,6.0,38,-99.99,,,0.00,577.000000,,2013-01-03 20:51:00,
2013-01-03 14:12:00,24.0,2.0,-100.00,ENE,72,2.0,6.0,38,-99.99,,,0.00,577.000000,,2013-01-03 21:12:00,
2013-01-03 14:22:00,24.0,2.0,-100.00,ENE,72,2.0,6.0,38,-99.99,,,0.00,577.000000,,2013-01-03 21:22:00,
2013-01-03 14:35:00,24.0,2.0,-100.00,ENE,72,2.0,6.0,38,-99.99,,,0.00,577.000000,,2013-01-03 21:35:00,
2013-01-03 14:46:00,24.0,2.0,-100.00,ENE,72,2.0,6.0,38,-99.99,,,0.00,577.000000,,2013-01-03 21:46:00,
2013-01-03 15:22:00,27.0,2.0,-100.00,SE,135,1.0,4.0,34,0.00,,,0.00,469.000000,,2013-01-03 22:22:00,
2013-01-03 15:32:00,27.0,2.0,-100.00,SE,135,1.0,4.0,34,0.00,,,0.00,469.000000,,2013-01-03 22:32:00,
2013-01-03 16:22:00,26.0,2.0,-100.00,South,181,0.0,4.0,34,0.00,,,0.00,309.000000,,2013-01-03 23:22:00,
2013-01-03 16:32:00,26.0,2.0,-100.00,South,181,0.0,4.0,34,0.00,,,0.00,309.000000,,2013-01-03 23:32:00,
2013-01-03 16:51:00,20.0,-1.0,-100.00,North,4,0.0,2.0,38,-99.99,,,0.00,107.000000,,2013-01-03 23:51:00,
2013-01-03 17:12:00,20.0,-1.0,-100.00,North,4,0.0,2.0,38,-99.99,,,0.00,107.000000,,2013-01-04 00:12:00,
2013-01-03 17:22:00,20.0,-1.0,-100.00,North,4,0.0,2.0,38,-99.99,,,0.00,107.000000,,2013-01-04 00:22:00,
2013-01-03 17:32:00,20.0,-1.0,-100.00,North,4,0.0,2.0,38,-99.99,,,0.00,107.000000,,2013-01-04 00:32:00,
2013-01-03 17:42:00,20.0,-1.0,-100.00,North,4,0.0,2.0,38,-99.99,,,0.00,107.000000,,2013-01-04 00:42:00,
2013-01-03 18:12:00,18.0,-2.0,-100.00,South,177,0.0,1.0,40,-99.99,,,0.00,2.000000,,2013-01-04 01:12:00,
2013-01-03 18:22:00,18.0,-2.0,-100.00,South,177,0.0,1.0,40,-99.99,,,0.00,2.000000,,2013-01-04 01:22:00,
2013-01-03 18:32:00,18.0,-2.0,-100.00,South,177,0.0,1.0,40,-99.99,,,0.00,2.000000,,2013-01-04 01:32:00,
2013-01-03 19:12:00,16.0,-2.0,-100.00,SSW,209,1.0,3.0,43,-99.99,,,0.00,0.000000,,2013-01-04 02:12:00,
2013-01-03 19:22:00,16.0,-2.0,-100.00,SSW,209,1.0,3.0,43,-99.99,,,0.00,0.000000,,2013-01-04 02:22:00,
2013-01-03 19:32:00,16.0,-2.0,-100.00,SSW,209,1.0,3.0,43,-99.99,,,0.00,0.000000,,2013-01-04 02:32:00,
2013-01-03 20:12:00,15.0,-2.0,-100.00,East,89,2.0,3.0,46,-99.99,,,0.00,0.000000,,2013-01-04 03:12:00,
2013-01-03 20:22:00,15.0,-2.0,-100.00,East,89,2.0,3.0,46,-99.99,,,0.00,0.000000,,2013-01-04 03:22:00,
2013-01-03 20:51:00,14.0,-1.0,-100.00,NNE,23,3.0,6.0,50,-99.99,,,-99.99,,,2013-01-04 03:51:00,
2013-01-03 21:12:00,14.0,-1.0,-100.00,NNE,23,3.0,6.0,50,-99.99,,,-99.99,,,2013-01-04 04:12:00,
2013-01-03 21:22:00,14.0,-1.0,-100.00,NNE,23,3.0,6.0,50,-99.99,,,-99.99,,,2013-01-04 04:22:00,
2013-01-03 21:32:00,14.0,-1.0,-100.00,NNE,23,3.0,6.0,50,-99.99,,,-99.99,,,2013-01-04 04:32:00,
2013-01-03 21:42:00,14.0,-1.0,-100.00,NNE,23,3.0,6.0,50,-99.99,,,-99.99,,,2013-01-04 04:42:00,
2013-01-03 22:22:00,12.0,-1.0,-100.00,ENE,59,2.0,6.0,55,-99.99,,,0.00,0.000000,,2013-01-04 05:22:00,
2013-01-03 23:12:00,11.0,-2.0,-100.00,NE,51,2.0,6.0,54,-99.99,,,0.00,0.000000,,2013-01-04 06:12:00,
2013-01-03 23:22:00,11.0,-2.0,-100.00,NE,51,2.0,6.0,54,-99.99,,,0.00,0.000000,,2013-01-04 06:22:00,
2013-01-03 23:32:00,11.0,-2.0,-100.00,NE,51,2.0,6.0,54,-99.99,,,0.00,0.000000,,2013-01-04 06:32:00,
2013-01-03 23:51:00,11.0,-3.0,-100.00,NE,44,4.0,9.0,53,0.00,,,0.00,0.000000,,2013-01-04 06:51:00,